Home   Weather   Italy   Catania   Past weeks
Flag for Italy

Past Weather in Catania, Italy — Yesterday and Last 2 Weeks

Currently: 73 °F. Clear. (Weather station: Catania / Fontanarossa, Italy). See more current weather

Past Weather in Catania — Graph

°F

Catania Temperature Yesterday

Maximum temperature yesterday: 93 °F (at 1:20 pm)
Minimum temperature yesterday: 72 °F (at 6:20 am)
Average temperature yesterday: 79 °F

High & Low Weather Summary for the Past Weeks

 TemperatureHumidityPressure
High100 °F (Sep 19, 1:50 pm)94% (Sep 24, 7:20 am)30.18 "Hg (Sep 24, 7:20 am)
Low61 °F (Sep 13, 6:20 am)17% (Sep 19, 1:50 pm)29.86 "Hg (Sep 19, 4:20 pm)
Average78 °F67%30.04 "Hg
* Reported Sep 13 6:20 am — Sep 28 6:20 am, Catania. Weather by CustomWeather, © 2021

Note: Actual official high and low records may vary slightly from our data, if they occured in-between our weather recording intervals... More about our weather records

Catania Weather History for the Previous 24 Hours

Scroll right to see more
 ConditionsComfort  
Time TempWeatherWind HumidityBarometerVisibility
6:20 am
Tue, Sep 28
73 °FClear.8 mph78%29.95 "Hg10 mi
5:50 am73 °FClear.7 mph83%29.95 "Hg10 mi
5:20 am73 °FClear.8 mph83%29.95 "Hg10 mi
4:50 am73 °FClear.7 mph83%29.95 "Hg10 mi
4:20 am75 °FClear.6 mph78%29.95 "Hg10 mi
3:50 am75 °FClear.6 mph78%29.95 "Hg10 mi
3:20 am75 °FClear.6 mph78%29.98 "Hg10 mi
2:50 am75 °FPassing clouds.7 mph83%29.95 "HgN/A
1:50 am77 °FClear.8 mph79%29.98 "Hg10 mi
1:20 am75 °FClear.7 mph83%29.98 "Hg10 mi
12:20 am77 °FClear.7 mph79%30.01 "Hg10 mi
11:50 pm
Mon, Sep 27
77 °FClear.6 mph79%30.01 "Hg10 mi
11:20 pm75 °FClear.6 mph83%30.01 "Hg10 mi
10:50 pm77 °FPassing clouds.6 mph79%30.01 "HgN/A
10:20 pm75 °FClear.6 mph78%30.01 "Hg10 mi
9:50 pm77 °FClear.8 mph74%30.01 "Hg10 mi
9:20 pm77 °FClear.6 mph74%30.01 "Hg10 mi
8:50 pm77 °FClear.2 mph74%29.98 "Hg10 mi
8:20 pm79 °FPassing clouds.3 mph70%29.98 "HgN/A
7:50 pm77 °FClear.1 mph83%29.98 "Hg10 mi
7:20 pm79 °FPassing clouds.3 mph74%29.98 "HgN/A
6:20 pm81 °FPassing clouds.7 mph74%29.98 "HgN/A
5:50 pm81 °FSunny.8 mph74%30.01 "Hg10 mi
5:20 pm81 °FPassing clouds.8 mph74%30.01 "HgN/A
4:50 pm81 °FSunny.10 mph74%30.01 "Hg10 mi
4:20 pm82 °FSunny.10 mph74%30.01 "Hg10 mi
3:50 pm81 °FSunny.10 mph79%30.01 "Hg10 mi
3:20 pm81 °FSunny.12 mph74%29.98 "Hg10 mi
2:50 pm82 °FPassing clouds.8 mph74%30.01 "HgN/A
2:20 pm82 °FPassing clouds.13 mph70%30.01 "HgN/A
1:50 pm82 °FPassing clouds.15 mph74%30.01 "HgN/A
1:20 pm93 °FPassing clouds.10 mph34%30.01 "HgN/A
12:50 pm91 °FPassing clouds.13 mph38%30.01 "HgN/A
12:20 pm90 °FPassing clouds.14 mph43%30.04 "HgN/A
11:50 am88 °FPassing clouds.13 mph49%30.04 "HgN/A
11:20 am86 °FPassing clouds.12 mph55%30.04 "HgN/A
10:20 am82 °FSunny.12 mph62%30.04 "Hg10 mi
9:50 am82 °FSunny.12 mph58%30.07 "Hg10 mi
9:20 am81 °FPassing clouds.7 mph62%30.07 "HgN/A
8:50 am79 °FSunny.2 mph65%30.04 "Hg10 mi
8:20 am77 °FSunny.1 mph74%30.04 "Hg10 mi
7:50 am75 °FPassing clouds.5 mph78%30.04 "HgN/A
7:20 am73 °FPassing clouds.6 mph83%30.04 "HgN/A
Weather by CustomWeather, © 2021

See weather overview